createdAt,value
2023-03-06T00:02:25.467Z,22.04
2023-03-06T00:06:25.467Z,22.04
2023-03-06T00:10:25.431Z,22.03
2023-03-06T00:14:25.403Z,22.02
2023-03-06T00:18:25.401Z,22.03
2023-03-06T00:22:25.500Z,22.01
2023-03-06T00:26:25.511Z,22.01
2023-03-06T00:30:25.479Z,22.00
2023-03-06T00:34:25.580Z,21.99
2023-03-06T00:38:25.622Z,21.99
2023-03-06T00:42:25.614Z,21.98
2023-03-06T00:46:25.614Z,21.98
2023-03-06T00:50:25.632Z,21.98
2023-03-06T00:54:25.643Z,21.96
2023-03-06T00:58:25.597Z,21.97
2023-03-06T01:02:25.614Z,21.96
2023-03-06T01:06:25.605Z,21.95
2023-03-06T01:10:25.582Z,21.95
2023-03-06T01:14:25.586Z,21.94
2023-03-06T01:18:25.599Z,21.95
2023-03-06T01:22:25.589Z,21.94
2023-03-06T01:26:25.608Z,21.93
2023-03-06T01:30:25.611Z,21.93
2023-03-06T01:34:25.637Z,21.93
2023-03-06T01:38:25.634Z,21.92
2023-03-06T01:42:25.670Z,21.92
2023-03-06T01:46:25.683Z,21.91
2023-03-06T01:50:25.660Z,21.92
2023-03-06T01:54:25.777Z,21.91
2023-03-06T01:58:25.776Z,21.90
2023-03-06T02:02:25.873Z,21.89
2023-03-06T02:06:25.805Z,21.90
2023-03-06T02:10:25.830Z,21.89
2023-03-06T02:14:25.873Z,21.89
2023-03-06T02:18:25.844Z,21.89
2023-03-06T02:22:25.871Z,21.88
2023-03-06T02:26:25.872Z,21.88
2023-03-06T02:30:25.887Z,21.88
2023-03-06T02:34:25.906Z,21.86
2023-03-06T02:38:25.921Z,21.86
2023-03-06T02:42:25.932Z,21.86
2023-03-06T02:46:26.042Z,21.85
2023-03-06T02:50:26.066Z,21.85
2023-03-06T02:54:26.100Z,21.84
2023-03-06T02:58:26.117Z,21.84
2023-03-06T03:02:26.169Z,21.84
2023-03-06T03:06:26.286Z,21.83
2023-03-06T03:10:26.393Z,21.84
2023-03-06T03:14:26.563Z,21.82
2023-03-06T03:18:26.631Z,21.82
2023-03-06T03:22:26.724Z,21.82
2023-03-06T03:26:26.825Z,21.82
2023-03-06T03:30:26.856Z,21.81
2023-03-06T03:34:26.870Z,21.80
2023-03-06T03:38:26.940Z,21.80
2023-03-06T03:42:27.140Z,21.80
2023-03-06T03:46:27.265Z,21.79
2023-03-06T03:50:27.311Z,21.79
2023-03-06T03:54:27.350Z,21.79
2023-03-06T03:58:27.428Z,21.78
2023-03-06T04:02:27.476Z,21.78
2023-03-06T04:06:27.502Z,21.78
2023-03-06T04:10:27.486Z,21.78
2023-03-06T04:14:27.571Z,21.77
2023-03-06T04:18:27.613Z,21.77
2023-03-06T04:22:27.671Z,21.77
2023-03-06T04:26:27.782Z,21.76
2023-03-06T04:30:27.845Z,21.76
2023-03-06T04:34:27.938Z,21.75
2023-03-06T04:38:27.963Z,21.76
2023-03-06T04:42:28.045Z,21.75
2023-03-06T04:46:28.110Z,21.74
2023-03-06T04:50:28.292Z,21.74
2023-03-06T04:54:28.315Z,21.74
2023-03-06T04:58:28.363Z,21.73
2023-03-06T05:02:28.483Z,21.73
2023-03-06T05:06:28.494Z,21.71
2023-03-06T05:10:28.589Z,21.70
2023-03-06T05:14:28.733Z,21.69
2023-03-06T05:18:28.891Z,21.68
2023-03-06T05:22:29.029Z,21.68
2023-03-06T05:26:29.480Z,21.66
2023-03-06T05:30:29.337Z,21.66
2023-03-06T05:34:29.289Z,21.65
2023-03-06T05:38:29.242Z,21.64
2023-03-06T05:42:29.196Z,21.64
2023-03-06T05:46:29.185Z,21.66
2023-03-06T05:50:29.166Z,21.66
2023-03-06T05:54:29.094Z,21.67
2023-03-06T05:58:29.054Z,21.68
2023-03-06T06:02:29.105Z,21.68
2023-03-06T06:06:29.051Z,21.69
2023-03-06T06:10:28.976Z,21.70
2023-03-06T06:14:28.922Z,21.70
2023-03-06T06:18:28.875Z,21.71
2023-03-06T06:22:28.870Z,21.72
2023-03-06T06:26:28.791Z,21.74
2023-03-06T06:30:28.775Z,21.76
2023-03-06T06:34:28.757Z,21.80
2023-03-06T06:38:29.031Z,21.92
2023-03-06T06:42:35.129Z,22.06
2023-03-06T06:47:18.147Z,22.23
2023-03-06T06:50:29.864Z,22.29
2023-03-06T06:54:28.796Z,22.33
2023-03-06T06:58:28.772Z,22.40
2023-03-06T07:02:28.737Z,22.46
2023-03-06T07:06:28.747Z,22.58
2023-03-06T07:10:28.745Z,22.68
2023-03-06T07:14:43.378Z,22.73
2023-03-06T07:18:28.525Z,22.80
2023-03-06T07:22:32.008Z,22.89
2023-03-06T07:26:29.574Z,22.96
2023-03-06T07:30:28.546Z,23.05
2023-03-06T07:34:28.557Z,23.10
2023-03-06T07:38:28.752Z,23.16
2023-03-06T07:42:29.367Z,23.13
2023-03-06T07:46:28.768Z,23.11
2023-03-06T07:50:35.260Z,23.10
2023-03-06T07:54:34.407Z,23.11
2023-03-06T07:58:30.057Z,23.07
2023-03-06T08:02:29.207Z,22.98
2023-03-06T08:06:28.938Z,22.91
2023-03-06T08:10:28.981Z,22.91
2023-03-06T08:14:28.968Z,22.92
2023-03-06T08:18:28.855Z,22.91
2023-03-06T08:22:28.974Z,22.92
2023-03-06T08:26:28.580Z,22.99
2023-03-06T08:30:28.710Z,23.04
2023-03-06T08:34:28.856Z,22.83
2023-03-06T08:38:28.886Z,22.45
2023-03-06T08:42:29.070Z,22.59
2023-03-06T08:46:29.212Z,22.83
2023-03-06T08:50:29.416Z,23.00
2023-03-06T08:54:29.554Z,23.17
2023-03-06T08:58:29.591Z,23.21
2023-03-06T09:02:30.651Z,23.09
2023-03-06T09:06:29.913Z,22.98
2023-03-06T09:10:30.193Z,22.97
2023-03-06T09:14:30.218Z,23.07
2023-03-06T09:18:30.364Z,23.20
2023-03-06T09:22:30.377Z,23.30
2023-03-06T09:26:45.102Z,22.92
2023-03-06T09:30:31.475Z,22.05
2023-03-06T09:34:30.413Z,21.01
2023-03-06T09:38:30.397Z,20.40
2023-03-06T09:42:30.589Z,20.14
2023-03-06T09:46:31.219Z,20.60
2023-03-06T09:50:30.873Z,21.20
2023-03-06T09:54:30.961Z,21.66
2023-03-06T09:58:31.627Z,21.89
2023-03-06T10:02:31.704Z,22.14
2023-03-06T10:06:31.260Z,22.37
2023-03-06T10:10:31.636Z,22.61
2023-03-06T10:14:32.129Z,22.87
2023-03-06T10:18:31.912Z,23.02
2023-03-06T10:22:31.965Z,23.15
2023-03-06T10:26:32.247Z,23.27
2023-03-06T10:30:32.643Z,23.38
2023-03-06T10:34:32.251Z,23.39
2023-03-06T10:38:32.705Z,23.52
2023-03-06T10:42:32.622Z,23.56
2023-03-06T10:46:32.331Z,23.63
2023-03-06T10:50:32.320Z,23.69
2023-03-06T10:54:32.351Z,23.76
2023-03-06T10:58:32.373Z,23.83
2023-03-06T11:02:32.549Z,23.86
2023-03-06T11:06:32.462Z,23.90
2023-03-06T11:14:51.349Z,24.00
2023-03-06T11:18:51.290Z,24.03
2023-03-06T11:22:51.591Z,24.03
2023-03-06T11:26:51.360Z,23.46
2023-03-06T11:30:51.143Z,22.87
2023-03-06T11:34:51.561Z,22.49
2023-03-06T11:38:51.074Z,22.15
2023-03-06T11:42:53.059Z,22.21
2023-03-06T11:46:51.096Z,22.38
2023-03-06T11:50:51.083Z,22.56
2023-03-06T11:54:51.092Z,22.77
2023-03-06T11:58:51.564Z,22.64
2023-03-06T12:02:51.488Z,22.93
2023-03-06T12:06:51.623Z,23.23
2023-03-06T12:10:52.243Z,23.42
2023-03-06T12:14:51.690Z,23.53
2023-03-06T12:18:51.664Z,23.56
2023-03-06T12:22:58.032Z,23.58
2023-03-06T12:26:52.649Z,23.57
2023-03-06T12:30:51.588Z,23.54
2023-03-06T12:34:51.554Z,23.54
2023-03-06T12:38:51.527Z,23.53
2023-03-06T12:42:51.619Z,23.49
2023-03-06T12:46:51.560Z,23.49
2023-03-06T12:50:51.589Z,23.44
2023-03-06T12:54:51.696Z,23.25
2023-03-06T12:58:51.846Z,22.93
2023-03-06T13:02:51.830Z,22.70
2023-03-06T13:06:51.727Z,22.90
2023-03-06T13:10:51.702Z,23.10
2023-03-06T13:14:54.554Z,23.30
2023-03-06T13:18:51.591Z,23.43
2023-03-06T13:22:51.615Z,23.56
2023-03-06T13:26:51.502Z,23.55
2023-03-06T13:30:53.119Z,23.29
2023-03-06T13:34:51.409Z,23.19
2023-03-06T13:38:51.796Z,23.18
2023-03-06T13:42:51.410Z,22.80
2023-03-06T13:46:51.323Z,22.37
2023-03-06T13:50:51.459Z,22.21
2023-03-06T13:54:51.502Z,22.32
2023-03-06T13:58:51.476Z,22.43
2023-03-06T14:02:51.619Z,22.51
2023-03-06T14:06:51.714Z,22.23
2023-03-06T14:10:51.838Z,21.97
2023-03-06T14:14:52.039Z,22.15
2023-03-06T14:18:52.071Z,22.44
2023-03-06T14:22:52.028Z,22.65
2023-03-06T14:26:52.022Z,22.81
2023-03-06T14:30:52.159Z,22.96
2023-03-06T14:34:51.903Z,23.03
2023-03-06T14:38:51.859Z,23.11
2023-03-06T14:42:51.874Z,23.20
2023-03-06T14:46:51.884Z,23.22
2023-03-06T14:50:51.774Z,23.16
2023-03-06T14:54:51.726Z,23.15
2023-03-06T14:58:51.708Z,23.12
2023-03-06T15:02:51.730Z,23.06
2023-03-06T15:06:51.691Z,23.04
2023-03-06T15:10:51.612Z,22.97
2023-03-06T15:14:51.518Z,22.97
2023-03-06T15:18:51.678Z,22.94
2023-03-06T15:22:51.888Z,22.93
2023-03-06T15:26:52.111Z,22.89
2023-03-06T15:30:52.280Z,22.87
2023-03-06T15:34:52.500Z,22.86
2023-03-06T15:38:52.609Z,22.85
2023-03-06T15:42:52.755Z,22.84
2023-03-06T15:46:59.232Z,22.83
2023-03-06T15:50:53.922Z,22.83
2023-03-06T15:54:53.057Z,22.82
2023-03-06T15:58:52.852Z,22.81
2023-03-06T16:02:53.020Z,22.81
2023-03-06T16:06:53.213Z,22.79
2023-03-06T16:10:53.363Z,22.78
2023-03-06T16:14:53.565Z,22.76
2023-03-06T16:18:53.737Z,22.72
2023-03-06T16:22:53.936Z,22.72
2023-03-06T16:26:54.055Z,22.69
2023-03-06T16:30:54.240Z,22.68
2023-03-06T16:34:54.413Z,22.65
2023-03-06T16:38:54.581Z,22.64
2023-03-06T16:42:55.252Z,22.62
2023-03-06T16:46:54.534Z,22.60
2023-03-06T16:50:54.521Z,22.58
2023-03-06T16:54:54.448Z,22.57
2023-03-06T16:58:54.418Z,22.55
2023-03-06T17:02:54.412Z,22.54
2023-03-06T17:06:54.332Z,22.53
2023-03-06T17:10:54.291Z,22.52
2023-03-06T17:14:54.481Z,22.49
2023-03-06T17:18:54.638Z,22.49
2023-03-06T17:22:54.813Z,22.48
2023-03-06T17:26:54.921Z,22.47
2023-03-06T17:30:55.095Z,22.45
2023-03-06T17:34:55.234Z,22.44
2023-03-06T17:38:55.411Z,22.44
2023-03-06T17:42:55.645Z,22.43
2023-03-06T17:46:55.754Z,22.42
2023-03-06T17:50:55.961Z,22.41
2023-03-06T17:54:56.120Z,22.40
2023-03-06T17:58:56.313Z,22.39
2023-03-06T18:02:56.601Z,22.38
2023-03-06T18:06:56.507Z,22.37
2023-03-06T18:10:56.522Z,22.36
2023-03-06T18:14:56.437Z,22.36
2023-03-06T18:18:56.403Z,22.35
2023-03-06T18:22:56.375Z,22.34
2023-03-06T18:26:56.345Z,22.33
2023-03-06T18:30:56.331Z,22.33
2023-03-06T18:34:56.272Z,22.32
2023-03-06T18:38:56.226Z,22.32
2023-03-06T18:42:56.221Z,22.30
2023-03-06T18:46:56.130Z,22.31
2023-03-06T18:50:56.174Z,22.32
2023-03-06T18:54:56.088Z,22.32
2023-03-06T18:58:56.067Z,22.31
2023-03-06T19:02:55.998Z,22.30
2023-03-06T19:06:55.965Z,22.28
2023-03-06T19:10:55.947Z,22.25
2023-03-06T19:14:55.880Z,22.22
2023-03-06T19:18:55.888Z,22.20
2023-03-06T19:22:55.884Z,22.19
2023-03-06T19:26:55.818Z,22.17
2023-03-06T19:30:55.775Z,22.17
2023-03-06T19:34:55.750Z,22.14
2023-03-06T19:38:55.680Z,22.15
2023-03-06T19:42:55.633Z,22.16
2023-03-06T19:46:55.639Z,22.17
2023-03-06T19:50:55.606Z,22.18
2023-03-06T19:54:55.580Z,22.18
2023-03-06T19:58:55.516Z,22.18
2023-03-06T20:02:55.486Z,22.19
2023-03-06T20:06:55.775Z,22.18
2023-03-06T20:10:55.634Z,22.18
2023-03-06T20:14:55.722Z,22.17
2023-03-06T20:18:55.830Z,22.17
2023-03-06T20:22:56.023Z,22.18
2023-03-06T20:26:56.204Z,22.16
2023-03-06T20:30:56.413Z,22.16
2023-03-06T20:34:56.409Z,22.15
2023-03-06T20:38:56.508Z,22.15
2023-03-06T20:42:56.623Z,22.15
2023-03-06T20:46:56.764Z,22.14
2023-03-06T20:50:56.879Z,22.14
2023-03-06T20:54:56.940Z,22.15
2023-03-06T20:58:57.036Z,22.14
2023-03-06T21:02:57.092Z,22.13
2023-03-06T21:06:57.240Z,22.12
2023-03-06T21:10:57.258Z,22.12
2023-03-06T21:14:57.293Z,22.12
2023-03-06T21:18:57.336Z,22.12
2023-03-06T21:22:57.403Z,22.11
2023-03-06T21:26:57.449Z,22.09
2023-03-06T21:30:57.419Z,22.10
2023-03-06T21:34:57.409Z,22.10
2023-03-06T21:38:57.478Z,22.09
2023-03-06T21:42:57.550Z,22.09
2023-03-06T21:46:57.487Z,22.08
2023-03-06T21:50:57.487Z,22.08
2023-03-06T21:54:57.464Z,22.07
2023-03-06T21:58:57.481Z,22.07
2023-03-06T22:02:57.526Z,22.07
2023-03-06T22:06:57.571Z,22.06
2023-03-06T22:10:57.565Z,22.06
2023-03-06T22:14:57.673Z,22.05
2023-03-06T22:18:57.696Z,22.05
2023-03-06T22:22:57.707Z,22.05
2023-03-06T22:26:57.786Z,22.04
2023-03-06T22:30:57.931Z,22.03
2023-03-06T22:34:57.840Z,22.03
2023-03-06T22:38:57.940Z,22.02
2023-03-06T22:42:57.836Z,22.01
2023-03-06T22:46:57.883Z,22.01
2023-03-06T22:50:57.837Z,22.01
2023-03-06T22:54:57.825Z,22.01
2023-03-06T22:58:57.810Z,22.00
2023-03-06T23:02:57.781Z,21.99
2023-03-06T23:06:57.770Z,21.98
2023-03-06T23:10:57.729Z,21.98
2023-03-06T23:14:57.776Z,21.97
2023-03-06T23:18:57.678Z,21.97
2023-03-06T23:22:57.718Z,21.97
2023-03-06T23:26:57.836Z,21.96
2023-03-06T23:30:57.833Z,21.96
2023-03-06T23:34:57.790Z,21.94
2023-03-06T23:38:57.825Z,21.95
2023-03-06T23:42:57.781Z,21.94
2023-03-06T23:46:57.787Z,21.94
2023-03-06T23:50:57.812Z,21.93
2023-03-06T23:54:57.830Z,21.93
2023-03-06T23:58:57.858Z,21.92
